Main page
METAR-TAF:

METAR-TAF

Airports :

Hearne Municipal Airport

Hearne, Texas, United States

latitude: 30-52-18N, longitude: 096-37-20W, elevation: 285 ft

Current weather observation

The report was made 24 minutes ago, at 12:55 UTC
Calm wind
Temperature 32°F
Humidity 86%
Pressure 30.36 in. Hg
Visibility: 10 miles
Clear sky

METAR: KLHB 281255Z AUTO 00000KT 10SM CLR 00/M02 A3036 RMK AO2 T00001020

Time: 07:19 (13:19 UTC)


TAF: missing

Weather observations and forecasts of more than 4000 airports (METAR and TAF reports).

The available stations are represented by yellow and red dots on the map.

Hover mouse over dot to see the name of the station.

Then click to see weather observations and forecasts.

To change the map : click on the green buttons with a black cross to zoom in, on the green button with a dash to zoom out, or on the green arrows for adjacent maps.


METAR-TAF: